Time;durP1;ratioP1;P1;durP2;ratioP2;P2;SDS_P1;SDS_P2;PMS_P1;PMS_P2;Temp;Humidity;BMP_temperature;BMP_pressure;BME280_temperature;BME280_humidity;BME280_pressure;Samples;Min_cycle;Max_cycle;Signal;HPM_P1;HPM_P2
2022/12/02 00:01:20;;;;;;;68.57;30.35;;;7.10;99.90;;;;;;5028729;28;20065;-74
2022/12/02 00:03:46;;;;;;;74.75;31.60;;;7.10;99.90;;;;;;5027029;28;20076;-73
2022/12/02 00:06:32;;;;;;;64.80;29.35;;;7.10;99.90;;;;;;5028723;28;20029;-73
2022/12/02 00:09:18;;;;;;;70.15;32.35;;;7.10;99.90;;;;;;5060387;28;20549;-74
2022/12/02 00:11:45;;;;;;;72.03;31.23;;;7.10;99.90;;;;;;5042739;28;20095;-74
2022/12/02 00:14:33;;;;;;;75.50;31.98;;;7.10;99.90;;;;;;5038250;28;20483;-73
2022/12/02 00:16:58;;;;;;;75.72;32.65;;;7.10;99.90;;;;;;5035633;28;20067;-74
2022/12/02 00:19:24;;;;;;;64.30;30.15;;;7.10;99.90;;;;;;5048329;28;20464;-74
2022/12/02 00:21:50;;;;;;;71.43;33.17;;;7.10;99.90;;;;;;5042835;28;20029;-75
2022/12/02 00:24:17;;;;;;;71.10;30.02;;;7.20;99.90;;;;;;5046154;28;20029;-74
2022/12/02 00:26:43;;;;;;;76.68;31.13;;;7.10;99.90;;;;;;5062543;28;20037;-74
2022/12/02 00:29:09;;;;;;;76.05;32.67;;;7.10;99.90;;;;;;5047233;28;20395;-75
2022/12/02 00:31:35;;;;;;;82.00;32.75;;;7.10;99.90;;;;;;5040737;28;20028;-75
2022/12/02 00:34:01;;;;;;;81.38;33.83;;;7.10;99.90;;;;;;5042180;28;20419;-73
2022/12/02 00:36:27;;;;;;;78.25;32.97;;;7.10;99.90;;;;;;5042101;28;20504;-74
2022/12/02 00:38:54;;;;;;;75.00;31.92;;;7.20;99.90;;;;;;5041854;28;20507;-74
2022/12/02 00:41:19;;;;;;;73.15;32.10;;;7.20;99.90;;;;;;5036093;28;20094;-74
2022/12/02 00:46:32;;;;;;;74.18;32.33;;;7.20;99.90;;;;;;5065235;28;20036;-75
2022/12/02 00:49:07;;;;;;;71.88;31.85;;;7.20;99.90;;;;;;5065020;28;20100;-74
2022/12/02 00:51:34;;;;;;;74.93;31.30;;;7.20;99.90;;;;;;5039077;28;20059;-74
2022/12/02 00:54:00;;;;;;;82.18;32.55;;;7.20;99.90;;;;;;5075128;28;20033;-74
2022/12/02 00:56:25;;;;;;;87.03;32.63;;;7.20;99.90;;;;;;5065504;28;20835;-74
2022/12/02 00:58:51;;;;;;;76.65;32.50;;;7.20;99.90;;;;;;5064836;28;20097;-74
2022/12/02 01:01:17;;;;;;;79.20;32.15;;;7.20;99.90;;;;;;5058194;28;20396;-74
2022/12/02 01:03:42;;;;;;;64.22;29.23;;;7.20;99.90;;;;;;5058796;28;20048;-74
2022/12/02 01:06:08;;;;;;;76.47;30.60;;;7.20;99.90;;;;;;5060500;28;20449;-74
2022/12/02 01:08:33;;;;;;;74.75;29.35;;;7.20;99.90;;;;;;5060087;28;20510;-74
2022/12/02 01:10:59;;;;;;;72.05;30.33;;;7.20;99.90;;;;;;5064620;28;20028;-74
2022/12/02 01:13:26;;;;;;;84.75;31.55;;;7.30;99.90;;;;;;5036915;28;20048;-74
2022/12/02 01:15:52;;;;;;;82.72;32.17;;;7.30;99.90;;;;;;5046039;28;20033;-74
2022/12/02 01:18:18;;;;;;;86.30;33.35;;;7.30;99.90;;;;;;5063635;28;20401;-74
2022/12/02 01:20:43;;;;;;;88.53;32.97;;;7.30;99.90;;;;;;5066691;28;20063;-75
2022/12/02 01:23:09;;;;;;;89.53;32.47;;;7.20;99.90;;;;;;5034654;28;20184;-74
2022/12/02 01:25:35;;;;;;;88.38;31.92;;;7.20;99.90;;;;;;5034669;28;20550;-74
2022/12/02 01:28:01;;;;;;;85.78;32.22;;;7.20;99.90;;;;;;5041650;28;20433;-74
2022/12/02 01:30:26;;;;;;;92.20;34.10;;;7.20;99.90;;;;;;5042406;28;20663;-74
2022/12/02 01:32:52;;;;;;;88.90;32.15;;;7.20;99.90;;;;;;5047765;28;20047;-74
2022/12/02 01:35:18;;;;;;;89.18;32.17;;;7.30;99.90;;;;;;5033796;28;20164;-74
2022/12/02 01:37:43;;;;;;;84.75;32.13;;;7.20;99.90;;;;;;5050018;28;20033;-73
2022/12/02 01:40:10;;;;;;;91.93;33.88;;;7.30;99.90;;;;;;5041201;28;20052;-74
2022/12/02 01:42:36;;;;;;;90.97;32.35;;;7.30;99.90;;;;;;5050928;28;20093;-74
2022/12/02 01:45:03;;;;;;;90.78;31.67;;;7.30;99.90;;;;;;5062808;28;20036;-74
2022/12/02 01:47:29;;;;;;;89.90;31.85;;;7.30;99.90;;;;;;5056519;28;20036;-75
2022/12/02 01:49:54;;;;;;;84.85;31.65;;;7.30;99.90;;;;;;5050927;28;20037;-74
2022/12/02 01:52:21;;;;;;;91.63;31.25;;;7.30;99.90;;;;;;5032596;28;20403;-74
2022/12/02 01:54:47;;;;;;;85.95;32.05;;;7.30;99.90;;;;;;5025195;28;20038;-75
2022/12/02 01:57:14;;;;;;;91.43;31.73;;;7.30;99.90;;;;;;5055047;28;20032;-74
2022/12/02 01:59:41;;;;;;;85.22;30.80;;;7.40;99.90;;;;;;5059701;28;20036;-75
2022/12/02 02:02:26;;;;;;;78.32;28.90;;;7.30;99.90;;;;;;5033163;28;20805;-74
2022/12/02 02:04:54;;;;;;;92.80;31.23;;;7.30;99.90;;;;;;5027058;28;20022;-73
2022/12/02 02:07:19;;;;;;;94.20;31.52;;;7.30;99.90;;;;;;5026668;28;20033;-74
2022/12/02 02:09:45;;;;;;;94.53;31.95;;;7.30;99.90;;;;;;5038120;28;20490;-74
2022/12/02 02:12:11;;;;;;;87.15;29.85;;;7.30;99.90;;;;;;5039828;28;20026;-74
2022/12/02 02:14:36;;;;;;;88.63;28.77;;;7.30;99.90;;;;;;5036536;28;20136;-74
2022/12/02 02:17:02;;;;;;;76.53;28.98;;;7.30;99.90;;;;;;5037820;28;20033;-74
2022/12/02 02:19:27;;;;;;;83.80;28.13;;;7.30;99.90;;;;;;5037994;28;20036;-74
2022/12/02 02:21:55;;;;;;;69.57;26.08;;;7.30;99.90;;;;;;5037940;28;20055;-74
2022/12/02 02:24:21;;;;;;;67.03;26.00;;;7.30;99.90;;;;;;5034465;28;20037;-74
2022/12/02 02:26:47;;;;;;;61.22;24.60;;;7.30;99.90;;;;;;5042856;28;20470;-73
2022/12/02 02:29:12;;;;;;;63.55;25.42;;;7.30;99.90;;;;;;5035117;28;20120;-74
2022/12/02 02:31:38;;;;;;;56.00;22.13;;;7.30;99.90;;;;;;5041669;28;20431;-74
2022/12/02 02:34:04;;;;;;;56.42;22.95;;;7.30;99.90;;;;;;5040502;28;20535;-74
2022/12/02 02:36:29;;;;;;;54.95;22.15;;;7.30;99.90;;;;;;5035819;28;20033;-74
2022/12/02 02:38:55;;;;;;;64.40;23.33;;;7.30;99.90;;;;;;5039838;28;20029;-74
2022/12/02 02:41:21;;;;;;;61.47;24.67;;;7.20;99.90;;;;;;5034281;28;21646;-74
2022/12/02 02:43:47;;;;;;;64.72;23.20;;;7.30;99.90;;;;;;5038002;28;20055;-74
2022/12/02 02:46:14;;;;;;;56.20;22.17;;;7.30;99.90;;;;;;5040427;28;20060;-74
2022/12/02 02:48:40;;;;;;;58.13;23.17;;;7.30;99.90;;;;;;5064989;28;20090;-74
2022/12/02 02:51:08;;;;;;;67.82;24.70;;;7.30;99.90;;;;;;5061049;28;20475;-74
2022/12/02 02:53:34;;;;;;;60.80;23.45;;;7.30;99.90;;;;;;5040535;28;20033;-74
2022/12/02 02:56:00;;;;;;;64.68;23.23;;;7.30;99.90;;;;;;5051344;28;20044;-74
2022/12/02 02:58:27;;;;;;;67.68;23.80;;;7.30;99.90;;;;;;5062329;28;20090;-73
2022/12/02 03:00:54;;;;;;;59.65;23.05;;;7.30;99.90;;;;;;5056075;28;20031;-73
2022/12/02 03:03:23;;;;;;;66.07;23.15;;;7.20;99.90;;;;;;5057315;28;20035;-73
2022/12/02 03:05:51;;;;;;;68.75;24.65;;;7.20;99.90;;;;;;5063615;28;20390;-74
2022/12/02 03:08:17;;;;;;;64.00;24.10;;;7.20;99.90;;;;;;5061192;28;20040;-74
2022/12/02 03:10:43;;;;;;;62.25;23.23;;;7.20;99.90;;;;;;5049510;28;20212;-73
2022/12/02 03:13:09;;;;;;;68.13;25.48;;;7.20;99.90;;;;;;5055521;28;20490;-73
2022/12/02 03:15:35;;;;;;;66.15;24.52;;;7.20;99.90;;;;;;5044160;28;20396;-73
2022/12/02 03:18:01;;;;;;;68.13;24.05;;;7.20;99.90;;;;;;5050417;28;20053;-74
2022/12/02 03:20:26;;;;;;;63.25;23.60;;;7.20;99.90;;;;;;5032394;28;20032;-73
2022/12/02 03:22:52;;;;;;;71.30;24.42;;;7.30;99.90;;;;;;5039305;28;20118;-73
2022/12/02 03:25:18;;;;;;;70.45;24.45;;;7.30;99.90;;;;;;5035343;28;20025;-73
2022/12/02 03:27:44;;;;;;;69.82;24.65;;;7.30;99.90;;;;;;5043914;28;20078;-73
2022/12/02 03:30:10;;;;;;;70.57;24.02;;;7.30;99.90;;;;;;5037452;28;20062;-73
2022/12/02 03:32:36;;;;;;;74.35;24.17;;;7.30;99.90;;;;;;5037449;28;20084;-74
2022/12/02 03:35:04;;;;;;;62.20;22.90;;;7.30;99.90;;;;;;5066629;28;20124;-74
2022/12/02 03:37:29;;;;;;;69.20;24.13;;;7.30;99.90;;;;;;5043397;28;20057;-73
2022/12/02 03:39:55;;;;;;;64.43;23.23;;;7.30;99.90;;;;;;5038353;28;20435;-74
2022/12/02 03:42:21;;;;;;;64.40;22.40;;;7.30;99.90;;;;;;5041087;28;20448;-73
2022/12/02 03:44:47;;;;;;;66.20;24.02;;;7.30;99.90;;;;;;5043877;28;20037;-73
2022/12/02 03:47:13;;;;;;;68.28;24.00;;;7.20;99.90;;;;;;5044662;28;20107;-73
2022/12/02 03:49:39;;;;;;;59.80;23.20;;;7.20;99.90;;;;;;5062821;28;20471;-74
2022/12/02 03:52:05;;;;;;;58.35;23.80;;;7.20;99.90;;;;;;5038968;28;20032;-74
2022/12/02 03:54:30;;;;;;;51.40;21.95;;;7.20;99.90;;;;;;5040936;28;20076;-74
2022/12/02 03:56:56;;;;;;;60.50;23.70;;;7.10;99.90;;;;;;5042954;28;20041;-74
2022/12/02 03:59:26;;;;;;;58.55;23.00;;;7.10;99.90;;;;;;5045362;28;20029;-73
2022/12/02 04:01:52;;;;;;;;;;;7.10;99.90;;;;;;5042631;28;20029;-73
2022/12/02 04:04:18;;;;;;;61.03;23.95;;;7.10;99.90;;;;;;5056746;28;19936;-73
2022/12/02 04:06:43;;;;;;;58.13;22.80;;;7.10;99.90;;;;;;5041852;28;20029;-74
2022/12/02 04:09:09;;;;;;;63.95;24.67;;;7.10;99.90;;;;;;5047846;28;20507;-73
2022/12/02 04:11:34;;;;;;;59.47;22.88;;;7.10;99.90;;;;;;5043875;28;20322;-74
2022/12/02 04:14:00;;;;;;;62.38;23.25;;;7.10;99.90;;;;;;5047652;28;20048;-74
2022/12/02 04:16:25;;;;;;;65.22;24.40;;;7.00;99.90;;;;;;5039483;28;20108;-74
2022/12/02 04:18:51;;;;;;;59.97;23.33;;;7.00;99.90;;;;;;5043206;28;20535;-74
2022/12/02 04:21:17;;;;;;;66.57;24.77;;;7.00;99.90;;;;;;5034551;28;20043;-75
2022/12/02 04:23:42;;;;;;;61.88;24.02;;;7.00;99.90;;;;;;5047404;28;20055;-74
2022/12/02 04:26:08;;;;;;;60.35;23.98;;;7.00;99.90;;;;;;5044592;28;20556;-74
2022/12/02 04:28:33;;;;;;;64.15;23.42;;;7.00;99.90;;;;;;5037486;28;20033;-74
2022/12/02 04:30:59;;;;;;;65.53;24.55;;;7.00;99.90;;;;;;5047928;28;20033;-74
2022/12/02 04:33:25;;;;;;;60.97;24.42;;;7.00;99.90;;;;;;5044765;28;20136;-73
2022/12/02 04:35:50;;;;;;;72.55;25.35;;;7.00;99.90;;;;;;5046940;28;20029;-74
2022/12/02 04:38:16;;;;;;;70.07;25.02;;;7.00;99.90;;;;;;5038183;28;20114;-74
2022/12/02 04:40:41;;;;;;;66.05;23.50;;;7.00;99.90;;;;;;5050956;28;20048;-74
2022/12/02 04:43:07;;;;;;;69.38;25.73;;;7.00;99.90;;;;;;5046669;28;20044;-74
2022/12/02 04:45:33;;;;;;;65.38;24.73;;;6.90;99.90;;;;;;5040509;28;20033;-73
2022/12/02 04:47:58;;;;;;;68.85;25.17;;;6.90;99.90;;;;;;5040903;28;20512;-74
2022/12/02 04:50:24;;;;;;;64.25;25.10;;;6.90;99.90;;;;;;5037979;28;20506;-74
2022/12/02 04:52:50;;;;;;;68.20;24.23;;;6.80;99.90;;;;;;5045443;28;20094;-74
2022/12/02 04:55:15;;;;;;;69.57;25.60;;;6.80;99.90;;;;;;5059237;28;20036;-74
2022/12/02 04:57:41;;;;;;;68.55;23.80;;;6.70;99.90;;;;;;5059746;28;20387;-74
2022/12/02 05:00:07;;;;;;;77.03;25.75;;;6.60;99.90;;;;;;5059196;28;20040;-74
2022/12/02 05:02:33;;;;;;;65.68;22.85;;;6.50;99.90;;;;;;5065731;28;20470;-74
2022/12/02 05:04:59;;;;;;;74.18;24.25;;;6.40;99.90;;;;;;5066090;28;20035;-74
2022/12/02 05:07:24;;;;;;;68.93;22.73;;;6.40;99.90;;;;;;5057312;28;20029;-74
2022/12/02 05:09:50;;;;;;;73.63;24.27;;;6.30;99.90;;;;;;5038105;28;20112;-75
2022/12/02 05:12:16;;;;;;;65.45;21.05;;;6.20;99.90;;;;;;5047554;28;20112;-74
2022/12/02 05:14:41;;;;;;;62.85;21.73;;;6.20;99.90;;;;;;5040895;28;20475;-74
2022/12/02 05:17:07;;;;;;;74.63;24.58;;;6.10;99.90;;;;;;5037398;28;20033;-74
2022/12/02 05:19:33;;;;;;;70.25;22.70;;;6.10;99.90;;;;;;5046955;28;20033;-74
2022/12/02 05:21:59;;;;;;;69.40;24.15;;;6.10;99.90;;;;;;5048421;28;20460;-73
2022/12/02 05:24:24;;;;;;;58.38;23.58;;;6.10;99.90;;;;;;5041255;28;20048;-74
2022/12/02 05:26:50;;;;;;;71.65;24.73;;;6.10;99.90;;;;;;5043115;28;20025;-74
2022/12/02 05:29:15;;;;;;;79.03;25.90;;;6.10;99.90;;;;;;5043094;28;20068;-73
2022/12/02 05:31:41;;;;;;;74.05;23.77;;;6.10;99.90;;;;;;5043026;28;20609;-74
2022/12/02 05:34:06;;;;;;;77.07;25.67;;;6.10;99.90;;;;;;5049252;28;20090;-74
2022/12/02 05:36:32;;;;;;;71.97;24.77;;;6.00;99.90;;;;;;5037680;28;20033;-74
2022/12/02 05:38:58;;;;;;;69.15;23.38;;;6.00;99.90;;;;;;5038015;28;20037;-74
2022/12/02 05:41:23;;;;;;;67.18;22.25;;;6.10;99.90;;;;;;5040218;28;20024;-73
2022/12/02 05:43:49;;;;;;;63.40;21.73;;;6.10;99.90;;;;;;5039334;28;20037;-74
2022/12/02 05:46:17;;;;;;;65.32;22.48;;;6.10;99.90;;;;;;5044244;28;20369;-74
2022/12/02 05:48:43;;;;;;;60.30;22.65;;;6.10;99.90;;;;;;5043431;28;20035;-73
2022/12/02 05:51:18;;;;;;;58.75;22.15;;;6.20;99.90;;;;;;5036128;28;20021;-73
2022/12/02 05:53:46;;;;;;;65.40;22.48;;;6.10;99.90;;;;;;5033418;28;20558;-74
2022/12/02 05:56:24;;;;;;;64.00;21.42;;;6.10;99.90;;;;;;5048645;28;20140;-74
2022/12/02 05:58:50;;;;;;;70.38;22.90;;;6.10;99.90;;;;;;5037876;28;20033;-74
2022/12/02 06:01:22;;;;;;;61.47;21.90;;;6.20;99.90;;;;;;5043301;28;20043;-74
2022/12/02 06:03:49;;;;;;;60.80;21.98;;;6.20;99.90;;;;;;5040654;28;20489;-74
2022/12/02 06:06:15;;;;;;;59.35;21.13;;;6.20;99.90;;;;;;5031833;28;20025;-73
2022/12/02 06:08:40;;;;;;;50.30;21.00;;;6.20;99.90;;;;;;5043038;28;20031;-73
2022/12/02 06:11:33;;;;;;;59.78;21.63;;;6.20;99.90;;;;;;5041899;28;20033;-74
2022/12/02 06:14:09;;;;;;;50.90;19.83;;;6.20;99.90;;;;;;5044001;28;20069;-74
2022/12/02 06:16:35;;;;;;;59.70;20.13;;;6.20;99.90;;;;;;5044283;28;20037;-74
2022/12/02 06:19:06;;;;;;;53.20;20.10;;;6.10;99.90;;;;;;5037438;28;20683;-74
2022/12/02 06:21:31;;;;;;;;;;;6.10;99.90;;;;;;5039467;28;20116;-73
2022/12/02 06:23:59;;;;;;;56.50;19.50;;;6.10;99.90;;;;;;5071630;28;20023;-74
2022/12/02 06:26:25;;;;;;;48.70;19.08;;;6.10;99.90;;;;;;5049416;28;20108;-74
2022/12/02 06:28:57;;;;;;;54.30;19.63;;;6.10;99.90;;;;;;5041828;28;20155;-74
2022/12/02 06:31:30;;;;;;;50.60;19.27;;;6.10;99.90;;;;;;5039251;28;20037;-75
2022/12/02 06:33:58;;;;;;;49.67;19.17;;;6.10;99.90;;;;;;5034256;28;20033;-74
2022/12/02 06:36:30;;;;;;;48.17;18.02;;;6.10;99.90;;;;;;5041146;28;20067;-74
2022/12/02 06:39:03;;;;;;;50.80;18.98;;;6.10;99.90;;;;;;5042515;28;20028;-74
2022/12/02 06:41:31;;;;;;;44.95;18.25;;;6.00;99.90;;;;;;5034795;28;20037;-74
2022/12/02 06:46:53;;;;;;;51.60;19.52;;;6.10;99.90;;;;;;5053186;28;20052;-74
2022/12/02 06:49:21;;;;;;;45.80;18.20;;;6.10;99.90;;;;;;5068292;28;20024;-73
2022/12/02 06:52:11;;;;;;;42.22;17.20;;;6.10;99.90;;;;;;5048088;28;20033;-74
2022/12/02 06:54:36;;;;;;;;;;;6.00;99.90;;;;;;5034635;28;20921;-75
2022/12/02 06:57:03;;;;;;;37.45;16.23;;;6.00;99.90;;;;;;5055575;28;19924;-74
2022/12/02 06:59:29;;;;;;;33.70;15.25;;;6.00;99.90;;;;;;5064881;28;20021;-74
2022/12/02 07:01:59;;;;;;;31.90;13.77;;;6.00;99.90;;;;;;5036489;28;20031;-74
2022/12/02 07:04:48;;;;;;;34.72;14.88;;;6.10;99.90;;;;;;5055397;28;20553;-74
2022/12/02 07:07:22;;;;;;;35.63;14.43;;;6.10;99.90;;;;;;5063988;28;20146;-74
2022/12/02 07:10:05;;;;;;;38.03;15.50;;;6.10;99.90;;;;;;5061846;28;20367;-73
2022/12/02 07:12:41;;;;;;;33.78;15.82;;;6.10;99.90;;;;;;5053327;28;20066;-74
2022/12/02 07:15:15;;;;;;;36.83;16.77;;;6.00;99.90;;;;;;5047602;28;20143;-73
2022/12/02 07:17:43;;;;;;;34.42;15.18;;;6.00;99.90;;;;;;5075306;28;20055;-73
2022/12/02 07:20:09;;;;;;;35.22;16.17;;;6.00;99.90;;;;;;5048071;28;20016;-74
2022/12/02 07:22:55;;;;;;;39.13;16.15;;;6.00;99.90;;;;;;5043660;28;20530;-74
2022/12/02 07:25:26;;;;;;;39.72;16.08;;;6.00;99.90;;;;;;5044069;28;20025;-73
2022/12/02 07:27:52;;;;;;;37.28;16.15;;;6.00;99.90;;;;;;5037700;28;20037;-74
2022/12/02 07:30:26;;;;;;;32.08;15.35;;;6.10;99.90;;;;;;5038379;28;20040;-73
2022/12/02 07:32:52;;;;;;;33.28;14.32;;;6.00;99.90;;;;;;5036163;28;20394;-75
2022/12/02 07:35:18;;;;;;;34.45;14.50;;;6.00;99.90;;;;;;5042211;28;20041;-74
2022/12/02 07:37:45;;;;;;;33.65;14.57;;;6.10;99.90;;;;;;5045296;28;20109;-74
2022/12/02 07:40:15;;;;;;;34.17;13.50;;;6.10;99.90;;;;;;5038319;28;20048;-75
2022/12/02 07:42:42;;;;;;;34.30;14.07;;;6.00;99.90;;;;;;5038299;28;20033;-74
2022/12/02 07:45:11;;;;;;;36.75;15.27;;;6.10;99.90;;;;;;5043411;28;20029;-74
2022/12/02 07:47:37;;;;;;;33.33;14.10;;;6.10;99.90;;;;;;5036686;28;20037;-75
2022/12/02 07:50:04;;;;;;;30.65;13.15;;;6.10;99.90;;;;;;5042195;28;20089;-74
2022/12/02 07:52:29;;;;;;;30.00;13.68;;;6.10;99.90;;;;;;5040111;28;20032;-74
2022/12/02 07:54:55;;;;;;;31.20;13.38;;;6.00;99.90;;;;;;5035118;28;20052;-74
2022/12/02 07:57:21;;;;;;;28.77;13.23;;;6.10;99.90;;;;;;5038013;28;20045;-74
2022/12/02 07:59:47;;;;;;;28.73;13.30;;;6.10;99.90;;;;;;5034757;28;20037;-75
2022/12/02 08:02:13;;;;;;;33.38;13.80;;;6.10;99.90;;;;;;5036927;28;20050;-75
2022/12/02 08:04:38;;;;;;;27.42;12.57;;;6.10;99.90;;;;;;5042179;28;20491;-75
2022/12/02 08:07:04;;;;;;;27.02;12.52;;;6.10;99.90;;;;;;5043620;28;20494;-75
2022/12/02 08:09:29;;;;;;;26.02;11.55;;;6.10;99.90;;;;;;5037857;28;20037;-75
2022/12/02 08:11:55;;;;;;;24.05;12.48;;;6.10;99.90;;;;;;5037649;28;20056;-74
2022/12/02 08:14:20;;;;;;;26.45;12.15;;;6.10;99.90;;;;;;5034621;28;20033;-74
2022/12/02 08:16:46;;;;;;;25.25;11.90;;;6.20;99.90;;;;;;5034693;28;20065;-75
2022/12/02 08:19:12;;;;;;;29.30;13.25;;;6.20;99.90;;;;;;5040762;28;20029;-74
2022/12/02 08:21:39;;;;;;;26.98;12.82;;;6.30;99.90;;;;;;5045700;28;20029;-74
2022/12/02 08:24:05;;;;;;;28.98;12.10;;;6.30;99.90;;;;;;5049100;28;20472;-74
2022/12/02 08:26:31;;;;;;;24.45;11.65;;;6.30;99.90;;;;;;5047326;28;20595;-74
2022/12/02 08:28:57;;;;;;;24.85;11.82;;;6.30;99.90;;;;;;5047363;28;20108;-75
2022/12/02 08:31:23;;;;;;;27.55;12.02;;;6.40;99.90;;;;;;5043273;28;20036;-75
2022/12/02 08:33:49;;;;;;;26.67;12.73;;;6.40;99.90;;;;;;5057367;28;20106;-75
2022/12/02 08:36:15;;;;;;;28.15;12.57;;;6.40;99.90;;;;;;5056314;28;20060;-75
2022/12/02 08:38:41;;;;;;;24.10;11.52;;;6.40;99.90;;;;;;5045314;28;20029;-75
2022/12/02 08:41:07;;;;;;;25.35;11.65;;;6.50;99.90;;;;;;5048832;28;20021;-75
2022/12/02 08:43:33;;;;;;;24.90;12.15;;;6.50;99.90;;;;;;5046677;28;20029;-75
2022/12/02 08:45:58;;;;;;;21.08;10.48;;;6.50;99.90;;;;;;5045556;28;20033;-75
2022/12/02 08:48:24;;;;;;;25.10;12.55;;;6.50;99.90;;;;;;5040444;28;20522;-75
2022/12/02 08:50:50;;;;;;;24.98;11.50;;;6.60;99.90;;;;;;5040672;28;20017;-75
2022/12/02 08:53:15;;;;;;;22.33;11.13;;;6.50;99.90;;;;;;5046069;28;20033;-75
2022/12/02 08:55:41;;;;;;;22.58;11.00;;;6.60;99.90;;;;;;5046653;28;20037;-74
2022/12/02 08:58:08;;;;;;;22.02;11.18;;;6.60;99.90;;;;;;5047367;28;20789;-74
2022/12/02 09:00:34;;;;;;;22.25;11.93;;;6.60;99.90;;;;;;5049786;28;20028;-75
2022/12/02 09:03:00;;;;;;;21.42;11.48;;;6.60;99.90;;;;;;5042731;28;20032;-76
2022/12/02 09:05:26;;;;;;;23.05;12.13;;;6.70;99.90;;;;;;5047433;28;20110;-75
2022/12/02 09:07:51;;;;;;;27.73;12.38;;;6.70;99.90;;;;;;5039392;28;20041;-75
2022/12/02 09:10:17;;;;;;;23.77;11.65;;;6.70;99.90;;;;;;5033668;28;20033;-73
2022/12/02 09:12:43;;;;;;;25.98;12.40;;;6.70;99.90;;;;;;5035573;28;20026;-73
2022/12/02 09:15:09;;;;;;;24.90;12.13;;;6.80;99.90;;;;;;5046091;28;20082;-74
2022/12/02 09:17:34;;;;;;;24.55;13.15;;;6.80;99.90;;;;;;5047916;28;20132;-74
2022/12/02 09:20:01;;;;;;;20.85;12.23;;;6.80;99.90;;;;;;5046749;28;20112;-75
2022/12/02 09:22:26;;;;;;;20.77;12.07;;;6.90;99.90;;;;;;5045972;28;20127;-74
2022/12/02 09:24:52;;;;;;;20.17;10.90;;;6.90;99.90;;;;;;5040745;28;20136;-74
2022/12/02 09:27:17;;;;;;;23.65;12.43;;;6.90;99.90;;;;;;5040127;28;20124;-75
2022/12/02 09:29:43;;;;;;;23.08;12.50;;;7.00;99.90;;;;;;5044889;28;20056;-74
2022/12/02 09:32:08;;;;;;;21.08;12.30;;;7.00;99.90;;;;;;5042856;28;20032;-74
2022/12/02 09:34:34;;;;;;;23.80;12.40;;;7.10;99.90;;;;;;5034408;28;20037;-74
2022/12/02 09:37:00;;;;;;;20.00;11.57;;;7.10;99.90;;;;;;5030717;28;20220;-74
2022/12/02 09:39:25;;;;;;;21.60;12.43;;;7.20;99.90;;;;;;5035833;28;20033;-74
2022/12/02 09:41:51;;;;;;;22.17;12.43;;;7.20;99.90;;;;;;5043235;28;20032;-75
2022/12/02 09:44:16;;;;;;;20.40;11.45;;;7.30;99.90;;;;;;5044982;28;20045;-74
2022/12/02 09:46:42;;;;;;;23.33;12.75;;;7.30;99.90;;;;;;5044684;28;20056;-74
2022/12/02 09:49:08;;;;;;;24.02;12.38;;;7.40;99.90;;;;;;5052009;28;20399;-74
2022/12/02 09:51:33;;;;;;;21.15;12.30;;;7.40;99.90;;;;;;5031097;28;20100;-74
2022/12/02 09:54:01;;;;;;;21.58;12.30;;;7.40;99.90;;;;;;5044986;28;20132;-74
2022/12/02 09:56:28;;;;;;;26.83;12.70;;;7.50;99.90;;;;;;5045637;28;20069;-76
2022/12/02 09:58:55;;;;;;;22.77;12.93;;;7.50;99.90;;;;;;5035956;28;20085;-73
2022/12/02 10:01:23;;;;;;;24.17;12.25;;;7.50;99.90;;;;;;5032587;28;20113;-75
2022/12/02 10:03:50;;;;;;;27.35;13.02;;;7.50;99.90;;;;;;5040999;28;20036;-76
2022/12/02 10:06:21;;;;;;;23.25;12.63;;;7.50;99.90;;;;;;5033515;28;20087;-75
2022/12/02 10:08:46;;;;;;;21.60;12.32;;;7.60;99.90;;;;;;5046630;28;20017;-75
2022/12/02 10:11:27;;;;;;;20.73;11.52;;;7.70;99.90;;;;;;5042621;28;20135;-75
2022/12/02 10:13:55;;;;;;;20.75;11.60;;;7.80;99.90;;;;;;5041735;28;20031;-75
2022/12/02 10:16:21;;;;;;;20.95;11.15;;;7.90;99.90;;;;;;5039322;28;20036;-75
2022/12/02 10:18:47;;;;;;;19.20;12.05;;;8.00;99.90;;;;;;5046404;28;20028;-75
2022/12/02 10:21:13;;;;;;;22.73;12.13;;;8.10;99.90;;;;;;5047593;28;20466;-75
2022/12/02 10:23:54;;;;;;;23.05;12.45;;;8.20;99.90;;;;;;5041166;28;20048;-74
2022/12/02 10:26:19;;;;;;;21.23;12.07;;;8.30;99.90;;;;;;5040094;28;20585;-75
2022/12/02 10:28:59;;;;;;;19.98;12.00;;;8.30;99.90;;;;;;5040398;28;20081;-75
2022/12/02 10:31:25;;;;;;;24.08;12.07;;;8.40;99.90;;;;;;5041410;28;20136;-75
2022/12/02 10:34:03;;;;;;;24.15;11.98;;;8.50;99.90;;;;;;5038314;28;20123;-75
2022/12/02 10:36:38;;;;;;;17.20;10.95;;;8.50;99.90;;;;;;5043200;28;20044;-75
2022/12/02 10:39:17;;;;;;;23.15;12.48;;;8.50;99.90;;;;;;5038490;28;20103;-75
2022/12/02 10:41:44;;;;;;;20.03;11.43;;;8.40;99.90;;;;;;5032807;28;20049;-75
2022/12/02 10:44:19;;;;;;;17.63;10.57;;;8.30;99.90;;;;;;5026283;28;20639;-75
2022/12/02 10:46:45;;;;;;;20.92;11.15;;;8.20;99.90;;;;;;5033956;28;20033;-74
2022/12/02 10:49:15;;;;;;;19.83;11.65;;;8.20;99.90;;;;;;5031068;28;20131;-75
2022/12/02 10:51:41;;;;;;;22.42;12.85;;;8.10;99.90;;;;;;5037850;28;20021;-75
2022/12/02 10:54:19;;;;;;;22.98;12.25;;;8.10;99.90;;;;;;5050637;28;20036;-75
2022/12/02 10:56:44;;;;;;;23.05;12.30;;;8.20;99.90;;;;;;5046876;28;20028;-74
2022/12/02 10:59:14;;;;;;;23.02;12.45;;;8.40;99.90;;;;;;5033559;28;20630;-73
2022/12/02 11:01:40;;;;;;;28.50;12.68;;;8.70;99.90;;;;;;5036773;28;20013;-74
2022/12/02 11:04:12;;;;;;;28.75;12.98;;;8.80;99.90;;;;;;5043495;28;20041;-76
2022/12/02 11:06:38;;;;;;;27.60;12.52;;;8.90;99.90;;;;;;5039158;28;20079;-73
2022/12/02 11:09:03;;;;;;;24.38;13.25;;;9.00;99.90;;;;;;5027865;28;20071;-75
2022/12/02 11:11:29;;;;;;;22.48;12.52;;;9.10;99.90;;;;;;5032479;28;20029;-75
2022/12/02 11:14:25;;;;;;;27.83;13.80;;;9.20;99.90;;;;;;5035764;28;20028;-73
2022/12/02 11:17:09;;;;;;;24.13;11.68;;;9.30;99.90;;;;;;5028132;28;20037;-74
2022/12/02 11:19:34;;;;;;;21.58;11.82;;;9.30;99.90;;;;;;5037555;28;20060;-73
2022/12/02 11:22:00;;;;;;;23.38;12.07;;;9.30;99.90;;;;;;5037009;28;20056;-74
2022/12/02 11:24:26;;;;;;;22.38;11.80;;;9.30;99.90;;;;;;5034978;28;20059;-74
2022/12/02 11:27:03;;;;;;;20.30;12.05;;;9.10;99.90;;;;;;5040546;28;20029;-74
2022/12/02 11:29:38;;;;;;;20.45;11.60;;;9.00;99.90;;;;;;5040928;28;20037;-74
2022/12/02 11:32:26;;;;;;;22.80;12.05;;;8.90;99.90;;;;;;5040105;28;21050;-75
2022/12/02 11:34:56;;;;;;;20.58;11.25;;;8.90;99.90;;;;;;5028179;28;23930;-74
2022/12/02 11:37:25;;;;;;;22.88;11.88;;;8.80;99.90;;;;;;5029700;28;20103;-74
2022/12/02 11:39:51;;;;;;;24.92;12.27;;;8.80;99.90;;;;;;5034654;28;20029;-74
2022/12/02 11:42:18;;;;;;;20.25;11.10;;;8.90;99.90;;;;;;5028955;28;20120;-75
2022/12/02 11:44:44;;;;;;;20.35;11.70;;;8.90;99.90;;;;;;5038080;28;20048;-75
2022/12/02 11:47:29;;;;;;;19.75;10.85;;;8.90;99.90;;;;;;5042794;28;20048;-74
2022/12/02 11:50:17;;;;;;;22.15;12.07;;;8.90;99.90;;;;;;5043270;28;20102;-74
2022/12/02 11:52:52;;;;;;;19.73;11.82;;;8.90;99.90;;;;;;5043221;28;20538;-75
2022/12/02 11:55:21;;;;;;;19.45;11.05;;;9.00;99.90;;;;;;5047958;28;20764;-74
2022/12/02 11:57:55;;;;;;;20.35;10.82;;;9.00;99.90;;;;;;5049015;28;20467;-74
2022/12/02 12:00:28;;;;;;;20.90;11.88;;;9.00;99.90;;;;;;5049844;28;20110;-75
2022/12/02 12:03:17;;;;;;;26.30;12.10;;;9.10;99.90;;;;;;5067138;28;20024;-74
2022/12/02 12:06:04;;;;;;;20.50;11.27;;;9.20;99.90;;;;;;5060941;28;20033;-74
2022/12/02 12:08:30;;;;;;;19.30;10.35;;;9.30;99.90;;;;;;5047652;28;20071;-74
2022/12/02 12:11:17;;;;;;;20.52;10.68;;;9.30;99.90;;;;;;5047370;28;20060;-74
2022/12/02 12:13:58;;;;;;;18.55;10.52;;;9.30;99.90;;;;;;5047812;28;20032;-75
2022/12/02 12:16:24;;;;;;;18.88;11.23;;;9.20;99.90;;;;;;5056558;28;20033;-74
2022/12/02 12:18:50;;;;;;;18.20;10.18;;;9.10;99.90;;;;;;5035758;28;20026;-74
2022/12/02 12:21:31;;;;;;;18.98;11.07;;;9.00;99.90;;;;;;5028966;28;20033;-73
2022/12/02 12:24:23;;;;;;;19.05;11.15;;;9.00;99.90;;;;;;5069459;28;20120;-74
2022/12/02 12:27:03;;;;;;;19.92;10.90;;;8.80;99.90;;;;;;5042070;28;20512;-74
2022/12/02 12:29:31;;;;;;;18.45;11.10;;;8.70;99.90;;;;;;5048257;28;20032;-74
2022/12/02 12:31:57;;;;;;;20.83;10.77;;;8.70;99.90;;;;;;5042018;28;20044;-74
2022/12/02 12:34:23;;;;;;;18.58;10.65;;;8.70;99.90;;;;;;5047566;28;20378;-74
2022/12/02 12:36:49;;;;;;;18.05;10.70;;;8.70;99.90;;;;;;5064397;28;20111;-74
2022/12/02 12:39:15;;;;;;;21.48;11.32;;;8.80;99.90;;;;;;5067585;28;20127;-74
2022/12/02 12:41:41;;;;;;;20.88;11.20;;;8.80;99.90;;;;;;5066423;28;20746;-74
2022/12/02 12:44:07;;;;;;;19.05;10.57;;;9.00;99.90;;;;;;5067582;28;20037;-74
2022/12/02 12:46:33;;;;;;;20.35;10.80;;;9.10;99.90;;;;;;5068294;28;20471;-74
2022/12/02 12:48:58;;;;;;;19.30;10.30;;;9.20;99.90;;;;;;5046401;28;20056;-74